Time;durP1;ratioP1;P1;durP2;ratioP2;P2;SDS_P1;SDS_P2;PMS_P1;PMS_P2;Temp;Humidity;BMP_temperature;BMP_pressure;BME280_temperature;BME280_humidity;BME280_pressure;Samples;Min_cycle;Max_cycle;Signal;HPM_P1;HPM_P2
2023/04/22 00:00:34;;;;;;;9.90;6.70;;;4.50;92.30;3.50;100571;;;;573321;246;24063;-76
2023/04/22 00:03:01;;;;;;;8.80;6.33;;;4.40;92.70;3.40;100562;;;;573221;246;24081;-74
2023/04/22 00:05:28;;;;;;;9.90;6.10;;;4.40;93.00;3.40;100563;;;;573335;246;24147;-74
2023/04/22 00:07:56;;;;;;;9.37;6.80;;;4.40;93.20;3.40;100569;;;;573300;240;24206;-73
2023/04/22 00:10:24;;;;;;;11.40;6.77;;;4.40;93.50;3.40;100559;;;;573341;246;24101;-73
2023/04/22 00:12:52;;;;;;;9.32;5.97;;;4.40;93.70;3.40;100558;;;;568292;246;35261;-72
2023/04/22 00:15:21;;;;;;;7.43;5.27;;;4.40;94.40;3.40;100555;;;;573335;246;24125;-73
2023/04/22 00:17:49;;;;;;;8.00;4.67;;;4.30;94.30;3.30;100557;;;;573329;246;24064;-74
2023/04/22 00:20:17;;;;;;;8.03;5.13;;;4.40;94.40;3.30;100557;;;;573037;244;24070;-78
2023/04/22 00:22:44;;;;;;;6.53;4.63;;;4.30;94.90;3.30;100552;;;;572756;246;24133;-74
2023/04/22 00:25:12;;;;;;;12.03;6.87;;;4.30;94.70;3.30;100543;;;;572972;246;24061;-76
2023/04/22 00:27:43;;;;;;;11.93;7.10;;;4.30;94.90;3.20;100553;;;;573373;246;24086;-76
2023/04/22 00:30:08;;;;;;;13.10;7.87;;;4.30;95.10;3.20;100555;;;;573666;245;24106;-73
2023/04/22 00:32:37;;;;;;;12.13;8.43;;;4.20;95.30;3.20;100552;;;;574558;246;24089;-76
2023/04/22 00:35:04;;;;;;;11.30;7.67;;;4.20;95.60;3.20;100554;;;;574092;246;24115;-74
2023/04/22 00:37:35;;;;;;;11.03;7.53;;;4.20;95.90;3.20;100544;;;;574131;246;24058;-75
2023/04/22 00:40:00;;;;;;;12.43;7.97;;;4.20;96.10;3.20;100547;;;;577411;246;24088;-75
2023/04/22 00:42:28;;;;;;;14.97;7.67;;;4.20;96.30;3.20;100543;;;;573876;246;24059;-76
2023/04/22 00:44:59;;;;;;;13.25;9.55;;;4.20;97.30;3.20;100545;;;;564992;246;35214;-76
2023/04/22 00:47:25;;;;;;;8.60;5.50;;;4.20;97.30;3.20;100541;;;;573504;246;24114;-75
2023/04/22 00:49:52;;;;;;;6.70;5.20;;;4.20;97.50;3.20;100537;;;;573717;244;25112;-75
2023/04/22 00:52:21;;;;;;;14.37;6.77;;;4.20;97.60;3.20;100542;;;;573076;246;24102;-75
2023/04/22 00:54:48;;;;;;;19.03;7.80;;;4.20;97.80;3.20;100531;;;;573160;246;24111;-77
2023/04/22 00:57:19;;;;;;;14.17;9.13;;;4.20;98.10;3.20;100528;;;;573581;246;24055;-75
2023/04/22 00:59:47;;;;;;;9.13;7.37;;;4.20;98.20;3.20;100529;;;;573393;246;24416;-77
2023/04/22 01:02:13;;;;;;;12.07;7.17;;;4.20;99.00;3.20;100528;;;;573364;246;24090;-74
2023/04/22 01:04:44;;;;;;;8.57;7.37;;;4.20;99.00;3.20;100528;;;;573622;246;24068;-75
2023/04/22 01:07:08;;;;;;;13.40;7.70;;;4.20;99.30;3.10;100526;;;;574080;246;24068;-78
2023/04/22 01:09:39;;;;;;;13.37;7.37;;;4.20;99.60;3.10;100534;;;;573359;246;24061;-75
2023/04/22 01:12:08;;;;;;;11.60;7.27;;;4.10;99.90;3.10;100531;;;;577774;242;24085;-75
2023/04/22 01:14:33;;;;;;;10.60;7.60;;;4.10;99.90;3.10;100532;;;;573149;246;25112;-77
2023/04/22 01:17:01;;;;;;;11.40;8.10;;;4.10;99.90;3.00;100528;;;;573286;246;24134;-77
2023/04/22 01:19:32;;;;;;;13.80;8.33;;;4.10;99.90;3.10;100533;;;;569332;246;24061;-76
2023/04/22 01:22:01;;;;;;;11.17;8.20;;;4.10;99.90;3.00;100523;;;;572668;246;25131;-79
2023/04/22 01:24:25;;;;;;;13.93;8.03;;;4.00;99.90;2.90;100534;;;;573127;246;24090;-76
2023/04/22 01:26:52;;;;;;;9.63;8.10;;;4.00;99.90;2.90;100533;;;;572851;246;24074;-75
2023/04/22 01:29:24;;;;;;;15.33;8.00;;;3.90;99.90;2.80;100532;;;;569363;246;24058;-74
2023/04/22 01:31:48;;;;;;;14.57;8.80;;;3.90;99.90;2.80;100523;;;;572837;246;24094;-77
2023/04/22 01:34:16;;;;;;;15.17;9.30;;;3.80;99.90;2.70;100526;;;;568849;246;24087;-73
2023/04/22 01:36:44;;;;;;;17.30;9.90;;;3.80;99.90;2.70;100526;;;;573418;246;24078;-74
2023/04/22 01:39:12;;;;;;;14.53;9.53;;;3.70;99.90;2.70;100530;;;;573319;246;24075;-73
2023/04/22 01:41:41;;;;;;;17.63;9.83;;;3.70;99.90;2.60;100540;;;;573947;245;24144;-75
2023/04/22 01:44:12;;;;;;;18.67;10.80;;;3.60;99.90;2.60;100535;;;;574630;246;24076;-75
2023/04/22 01:46:36;;;;;;;13.93;9.70;;;3.70;99.90;2.60;100537;;;;582785;246;25156;-79
2023/04/22 01:49:04;;;;;;;14.97;10.47;;;3.60;99.90;2.60;100535;;;;574093;246;24151;-75
2023/04/22 01:51:35;;;;;;;17.77;9.93;;;3.60;99.90;2.60;100539;;;;573499;246;24069;-73
2023/04/22 01:54:02;;;;;;;15.23;10.10;;;3.60;99.90;2.60;100534;;;;573113;246;24068;-73
2023/04/22 01:56:28;;;;;;;16.10;10.47;;;3.60;99.90;2.60;100536;;;;573439;246;24093;-74
2023/04/22 01:58:56;;;;;;;17.73;10.43;;;3.60;99.90;2.60;100534;;;;578844;247;24152;-72
2023/04/22 02:01:24;;;;;;;18.13;10.33;;;3.60;99.90;2.60;100530;;;;573222;246;24083;-75
2023/04/22 02:03:52;;;;;;;13.63;10.13;;;3.60;99.90;2.60;100529;;;;573387;246;24162;-75
2023/04/22 02:06:20;;;;;;;19.37;10.90;;;3.60;99.90;2.50;100521;;;;573254;246;24097;-75
2023/04/22 02:08:48;;;;;;;17.67;10.80;;;3.60;99.90;2.50;100529;;;;573189;246;24077;-76
2023/04/22 02:11:15;;;;;;;15.80;10.80;;;3.50;99.90;2.50;100524;;;;573313;246;24187;-75
2023/04/22 02:13:48;;;;;;;14.50;10.40;;;3.50;99.90;2.50;100521;;;;573198;246;24103;-75
2023/04/22 02:16:12;;;;;;;14.70;10.37;;;3.50;99.90;2.50;100517;;;;573043;246;24070;-79
2023/04/22 02:18:40;;;;;;;15.23;10.17;;;3.50;99.90;2.50;100521;;;;573031;246;24065;-79
2023/04/22 02:21:08;;;;;;;12.70;8.90;;;3.50;99.90;2.50;100527;;;;572934;246;24105;-80
2023/04/22 02:23:39;;;;;;;15.40;8.93;;;3.50;99.90;2.50;100517;;;;573507;246;24166;-79
2023/04/22 02:26:07;;;;;;;15.97;8.97;;;3.50;99.90;2.50;100517;;;;573199;246;24085;-76
2023/04/22 02:28:32;;;;;;;15.83;9.60;;;3.50;99.90;2.50;100517;;;;581697;246;24070;-79
2023/04/22 02:30:59;;;;;;;12.73;8.63;;;3.50;99.90;2.50;100505;;;;573062;246;24077;-77
2023/04/22 02:33:27;;;;;;;16.50;9.90;;;3.50;99.90;2.50;100512;;;;573179;246;24086;-79
2023/04/22 02:35:56;;;;;;;17.03;9.43;;;3.50;99.90;2.50;100515;;;;573071;246;24076;-75
2023/04/22 02:38:24;;;;;;;15.97;9.13;;;3.50;99.90;2.50;100515;;;;573068;246;24052;-75
2023/04/22 02:40:52;;;;;;;12.00;8.60;;;3.50;99.90;2.50;100501;;;;573179;240;24064;-74
2023/04/22 02:43:20;;;;;;;9.90;8.27;;;3.50;99.90;2.50;100510;;;;572929;246;24040;-74
2023/04/22 02:45:49;;;;;;;17.17;9.57;;;3.50;99.90;2.40;100508;;;;573055;246;24133;-76
2023/04/22 02:48:16;;;;;;;10.73;7.93;;;3.50;99.90;2.40;100512;;;;573019;246;24078;-74
2023/04/22 02:50:44;;;;;;;13.77;8.17;;;3.50;99.90;2.40;100511;;;;572895;246;24061;-78
2023/04/22 02:53:12;;;;;;;10.10;7.27;;;3.50;99.90;2.40;100507;;;;573905;245;24068;-80
2023/04/22 02:55:43;;;;;;;13.00;7.37;;;3.50;99.90;2.40;100505;;;;574616;246;24114;-80
2023/04/22 02:58:12;;;;;;;14.13;7.70;;;3.40;99.90;2.40;100508;;;;574038;246;24113;-79
2023/04/22 03:00:36;;;;;;;9.53;7.50;;;3.40;99.90;2.40;100514;;;;574454;246;24123;-78
2023/04/22 03:03:04;;;;;;;10.97;7.17;;;3.40;99.90;2.40;100498;;;;574566;246;24140;-77
2023/04/22 03:05:32;;;;;;;10.00;7.37;;;3.40;99.90;2.40;100507;;;;574170;246;24089;-75
2023/04/22 03:08:00;;;;;;;11.87;7.40;;;3.40;99.90;2.30;100504;;;;574268;246;24083;-79
2023/04/22 03:10:28;;;;;;;10.00;7.00;;;3.30;99.90;2.30;100505;;;;574249;246;24116;-79
2023/04/22 03:12:56;;;;;;;9.17;7.40;;;3.40;99.90;2.30;100502;;;;574309;246;24098;-81
2023/04/22 03:15:24;;;;;;;13.17;7.43;;;3.40;99.90;2.30;100505;;;;574325;246;24057;-80
2023/04/22 03:17:57;;;;;;;9.47;7.30;;;3.30;99.90;2.30;100498;;;;569205;246;24054;-73
2023/04/22 03:20:24;;;;;;;10.27;6.73;;;3.30;99.90;2.30;100500;;;;573177;246;24085;-76
2023/04/22 03:22:49;;;;;;;8.40;6.83;;;3.30;99.90;2.40;100504;;;;578058;240;24088;-75
2023/04/22 03:25:17;;;;;;;11.57;6.80;;;3.40;99.90;2.40;100498;;;;573198;246;24088;-75
2023/04/22 03:27:45;;;;;;;8.73;6.33;;;3.40;99.90;2.40;100497;;;;573335;246;24159;-74
2023/04/22 03:30:17;;;;;;;10.43;6.93;;;3.40;99.90;2.40;100490;;;;573083;246;24102;-76
2023/04/22 03:32:41;;;;;;;10.53;7.33;;;3.40;99.90;2.40;100483;;;;573055;246;24101;-76
2023/04/22 03:35:10;;;;;;;9.83;6.60;;;3.40;99.90;2.40;100487;;;;573344;246;24155;-74
2023/04/22 03:37:42;;;;;;;11.00;6.40;;;3.40;99.90;2.40;100490;;;;573354;246;24066;-75
2023/04/22 03:40:06;;;;;;;8.83;6.30;;;3.40;99.90;2.50;100487;;;;573124;246;24109;-76
2023/04/22 03:42:34;;;;;;;6.50;5.80;;;3.50;99.90;2.50;100480;;;;573371;246;24112;-74
2023/04/22 03:45:05;;;;;;;14.40;7.00;;;3.50;99.90;2.50;100488;;;;573378;246;24129;-77
2023/04/22 03:47:30;;;;;;;7.90;5.83;;;3.50;99.90;2.50;100486;;;;572992;246;24073;-76
2023/04/22 03:49:58;;;;;;;11.13;6.47;;;3.50;99.90;2.50;100492;;;;573349;246;25120;-77
2023/04/22 03:52:27;;;;;;;9.93;5.80;;;3.50;99.90;2.60;100485;;;;573384;246;24080;-74
2023/04/22 03:54:55;;;;;;;6.57;5.10;;;3.50;99.90;2.60;100483;;;;572837;246;24048;-74
2023/04/22 03:57:23;;;;;;;8.20;5.67;;;3.60;99.90;2.70;100482;;;;573026;246;24082;-74
2023/04/22 03:59:51;;;;;;;7.97;4.83;;;3.60;99.90;2.70;100485;;;;572954;246;24055;-77
2023/04/22 04:02:19;;;;;;;8.43;4.80;;;3.70;99.90;2.80;100486;;;;582143;246;24109;-77
2023/04/22 04:04:46;;;;;;;8.37;4.73;;;3.70;99.90;2.90;100486;;;;573970;245;24086;-76
2023/04/22 04:07:15;;;;;;;6.13;4.40;;;3.80;99.90;3.00;100488;;;;574681;246;25161;-78
2023/04/22 04:09:42;;;;;;;5.20;3.90;;;3.90;99.90;3.00;100483;;;;574220;246;24086;-74
2023/04/22 04:12:11;;;;;;;5.93;3.67;;;4.00;99.90;3.10;100480;;;;577626;246;24107;-75
2023/04/22 04:14:39;;;;;;;5.97;3.67;;;4.00;99.90;3.20;100482;;;;573985;246;24110;-75
2023/04/22 04:17:12;;;;;;;6.10;3.47;;;4.10;99.90;3.20;100486;;;;582798;245;24051;-74
2023/04/22 04:19:38;;;;;;;11.27;3.87;;;4.20;99.90;3.30;100482;;;;570566;247;24082;-73
2023/04/22 04:22:03;;;;;;;5.37;3.27;;;4.30;99.90;3.50;100481;;;;573376;246;24088;-76
2023/04/22 04:24:31;;;;;;;4.80;3.00;;;4.40;99.90;3.60;100482;;;;573630;246;24101;-75
2023/04/22 04:26:59;;;;;;;4.20;3.03;;;4.50;99.90;3.80;100486;;;;573343;246;24090;-75
2023/04/22 04:29:26;;;;;;;5.03;3.23;;;4.60;99.90;3.90;100482;;;;573214;246;24084;-76
2023/04/22 04:31:54;;;;;;;6.87;3.60;;;4.80;99.90;4.10;100479;;;;573323;246;24088;-76
2023/04/22 04:34:22;;;;;;;8.80;4.07;;;5.00;99.90;5.20;100480;;;;573593;246;24077;-75
2023/04/22 04:36:50;;;;;;;4.40;3.03;;;5.90;99.90;7.10;100482;;;;573640;246;24123;-75
2023/04/22 04:39:19;;;;;;;4.70;2.93;;;7.70;99.90;9.20;100494;;;;573675;246;24090;-76
2023/04/22 04:41:47;;;;;;;9.53;3.57;;;9.70;99.90;11.10;100504;;;;573400;246;24076;-75
2023/04/22 04:44:17;;;;;;;4.67;3.33;;;11.70;99.90;12.80;100502;;;;573289;246;24069;-79
2023/04/22 04:46:43;;;;;;;5.30;3.83;;;13.50;99.90;14.30;100507;;;;573152;246;24085;-79
2023/04/22 04:49:11;;;;;;;7.40;4.20;;;15.00;97.30;15.60;100509;;;;573382;244;24070;-78
2023/04/22 04:51:38;;;;;;;9.27;4.70;;;17.60;87.50;16.70;100501;;;;573202;246;24077;-76
2023/04/22 04:54:07;;;;;;;14.50;5.47;;;18.60;81.00;17.80;100502;;;;573375;246;24069;-79
2023/04/22 04:56:35;;;;;;;10.67;4.50;;;18.60;80.20;18.70;100509;;;;573362;246;24128;-79
2023/04/22 04:59:03;;;;;;;13.80;5.30;;;19.60;73.90;19.60;100518;;;;573004;246;24071;-78
2023/04/22 05:01:33;;;;;;;7.43;5.53;;;20.50;69.60;20.40;100514;;;;568105;246;35202;-79
2023/04/22 05:03:59;;;;;;;10.00;5.10;;;21.30;63.80;21.10;100520;;;;581546;244;24070;-76
2023/04/22 05:06:27;;;;;;;5.33;4.83;;;22.00;61.10;21.90;100523;;;;573034;246;24072;-76
2023/04/22 05:08:54;;;;;;;11.93;4.80;;;22.80;58.90;22.70;100522;;;;573030;246;24059;-76
2023/04/22 05:11:22;;;;;;;5.40;4.60;;;23.60;56.70;23.70;100525;;;;572928;246;23081;-76
2023/04/22 05:13:50;;;;;;;5.47;4.90;;;24.50;54.80;24.50;100523;;;;573092;246;24083;-78
2023/04/22 05:16:18;;;;;;;6.50;4.37;;;25.30;52.90;25.40;100532;;;;573533;245;23067;-78
2023/04/22 05:18:46;;;;;;;7.73;4.73;;;26.20;51.20;26.20;100532;;;;574432;246;23073;-78
2023/04/22 05:21:15;;;;;;;9.30;4.73;;;27.00;49.80;26.80;100537;;;;573950;246;23075;-78
2023/04/22 05:23:43;;;;;;;4.95;4.32;;;28.00;47.10;27.20;100532;;;;573702;246;23112;-80
2023/04/22 05:26:14;;;;;;;5.70;4.43;;;28.50;46.10;27.70;100540;;;;573725;243;23084;-78
2023/04/22 05:28:39;;;;;;;4.93;4.50;;;28.40;46.00;28.20;100534;;;;573784;246;24082;-76
2023/04/22 05:31:11;;;;;;;5.28;4.32;;;29.00;45.10;28.90;100548;;;;573923;246;23072;-77
2023/04/22 05:33:35;;;;;;;5.30;4.05;;;29.60;44.20;29.40;100543;;;;574116;246;24126;-79
2023/04/22 05:36:06;;;;;;;6.68;4.53;;;30.10;43.10;29.70;100544;;;;573293;246;23101;-78
2023/04/22 05:38:31;;;;;;;5.18;4.30;;;30.40;42.50;30.20;100548;;;;573352;246;23117;-79
2023/04/22 05:40:59;;;;;;;5.97;4.50;;;31.00;41.90;30.70;100549;;;;573343;246;23079;-79
2023/04/22 05:43:28;;;;;;;6.03;4.00;;;32.00;41.50;31.30;100554;;;;573631;246;23153;-80
2023/04/22 05:45:56;;;;;;;4.80;4.20;;;32.60;40.30;32.00;100556;;;;573808;246;23079;-82
2023/04/22 05:48:24;;;;;;;9.52;4.37;;;32.50;40.20;32.60;100548;;;;574292;246;24066;-81
2023/04/22 05:50:53;;;;;;;5.68;4.10;;;33.30;39.40;33.40;100551;;;;574057;246;25267;-79
2023/04/22 05:53:20;;;;;;;6.53;4.37;;;34.00;38.80;34.10;100551;;;;573407;246;23065;-81
2023/04/22 05:55:48;;;;;;;5.68;4.57;;;34.70;38.10;34.40;100553;;;;573903;246;23147;-80
2023/04/22 05:58:16;;;;;;;5.05;4.47;;;35.20;37.30;34.70;100559;;;;573819;246;23116;-77
2023/04/22 06:00:45;;;;;;;4.87;4.40;;;35.40;37.00;35.10;100558;;;;574047;246;23156;-79
2023/04/22 06:03:15;;;;;;;7.50;3.53;;;35.80;36.80;35.80;100556;;;;574174;246;23103;-81
2023/04/22 06:05:42;;;;;;;6.55;3.67;;;36.50;36.40;36.40;100557;;;;572830;246;23106;-78
2023/04/22 06:08:07;;;;;;;7.72;4.15;;;37.00;35.80;36.70;100561;;;;567943;246;46038;-77
2023/04/22 06:10:36;;;;;;;7.43;3.85;;;37.70;34.50;36.90;100557;;;;572959;246;23076;-77
2023/04/22 06:13:04;;;;;;;13.35;4.18;;;37.70;34.50;37.10;100561;;;;573105;246;23073;-77
2023/04/22 06:15:32;;;;;;;5.40;3.60;;;37.90;34.40;37.40;100559;;;;573001;244;23075;-77
2023/04/22 06:18:01;;;;;;;12.05;3.62;;;38.40;33.60;37.60;100558;;;;573270;246;23087;-77
2023/04/22 06:20:31;;;;;;;3.53;2.10;;;38.60;34.00;37.90;100563;;;;573012;246;23078;-77
2023/04/22 06:22:57;;;;;;;3.80;2.30;;;38.50;33.30;38.00;100560;;;;572777;246;24287;-77
2023/04/22 06:25:25;;;;;;;6.70;1.90;;;38.70;33.30;37.60;100555;;;;573123;246;23075;-76
2023/04/22 06:27:54;;;;;;;2.45;1.70;;;38.40;32.80;37.60;100566;;;;573554;245;23125;-78
2023/04/22 06:30:23;;;;;;;2.90;1.45;;;38.40;32.70;37.60;100572;;;;575053;246;23141;-78
2023/04/22 06:32:54;;;;;;;6.62;1.77;;;38.30;32.60;37.60;100570;;;;574975;246;23071;-80
2023/04/22 06:35:18;;;;;;;3.17;1.77;;;38.40;32.40;37.70;100568;;;;571240;246;23143;-81
2023/04/22 06:37:49;;;;;;;2.58;2.37;;;38.40;32.50;37.80;100568;;;;573938;246;23089;-80
2023/04/22 06:40:14;;;;;;;2.40;2.22;;;38.40;32.30;37.60;100562;;;;574424;246;23112;-76
2023/04/22 06:42:42;;;;;;;2.50;2.30;;;38.30;32.20;37.60;100560;;;;582798;246;23060;-79
2023/04/22 06:45:11;;;;;;;2.22;1.75;;;38.30;32.40;37.70;100562;;;;573537;246;24101;-78
2023/04/22 06:47:41;;;;;;;5.05;1.80;;;38.30;32.20;37.70;100565;;;;573360;246;23075;-77
2023/04/22 06:50:06;;;;;;;1.45;1.27;;;38.30;32.10;37.40;100563;;;;572803;246;23081;-76
2023/04/22 06:52:34;;;;;;;1.25;1.12;;;38.20;32.10;37.60;100555;;;;573122;243;23114;-76
2023/04/22 06:55:05;;;;;;;1.10;1.00;;;38.20;32.10;37.70;100563;;;;573498;246;23094;-76
2023/04/22 06:57:32;;;;;;;1.30;1.10;;;38.30;32.00;37.40;100566;;;;573302;246;23104;-79
2023/04/22 07:00:00;;;;;;;1.67;1.00;;;38.20;31.70;37.30;100567;;;;573803;246;23076;-76
2023/04/22 07:02:28;;;;;;;1.40;1.30;;;38.00;32.10;37.60;100566;;;;573265;246;23079;-78
2023/04/22 07:04:56;;;;;;;3.95;1.20;;;38.10;31.80;37.50;100568;;;;573290;246;23071;-77
2023/04/22 07:07:29;;;;;;;2.87;1.40;;;38.30;31.80;37.70;100563;;;;580200;246;23108;-79
2023/04/22 07:09:53;;;;;;;0.88;0.88;;;38.50;31.70;38.10;100566;;;;573219;246;23060;-81
2023/04/22 07:12:23;;;;;;;0.90;0.90;;;38.40;31.60;38.20;100562;;;;573488;246;23096;-82
2023/04/22 07:14:49;;;;;;;1.30;1.08;;;38.70;31.50;38.60;100564;;;;573605;246;23111;-78
2023/04/22 07:17:21;;;;;;;1.37;1.27;;;39.00;31.30;39.10;100558;;;;574741;246;23041;-79
2023/04/22 07:19:45;;;;;;;1.27;1.17;;;39.50;31.80;39.60;100560;;;;574420;246;23106;-76
2023/04/22 07:22:13;;;;;;;1.67;1.00;;;39.90;31.60;39.80;100561;;;;573217;246;23102;-81
2023/04/22 07:24:41;;;;;;;41.00;4.43;;;40.10;31.20;40.00;100554;;;;573104;246;24102;-80
2023/04/22 07:27:13;;;;;;;0.95;0.80;;;40.40;31.00;40.40;100555;;;;572964;246;23093;-80
2023/04/22 07:29:37;;;;;;;5.15;1.20;;;40.80;31.00;40.70;100549;;;;572707;246;23090;-76
2023/04/22 07:32:05;;;;;;;1.12;1.02;;;41.20;30.70;41.20;100553;;;;573490;246;23114;-81
2023/04/22 07:34:33;;;;;;;0.73;0.73;;;41.60;30.50;41.50;100550;;;;573393;246;23151;-78
2023/04/22 07:37:01;;;;;;;8.20;1.27;;;41.80;30.40;41.50;100550;;;;573456;246;23148;-82
2023/04/22 07:39:28;;;;;;;4.32;0.85;;;41.90;30.00;41.60;100546;;;;573076;245;23070;-79
2023/04/22 07:41:57;;;;;;;9.25;1.50;;;42.00;30.00;41.70;100549;;;;574486;246;23055;-82
2023/04/22 07:44:24;;;;;;;0.95;0.95;;;42.10;30.00;41.90;100548;;;;573874;246;23080;-82
2023/04/22 07:46:52;;;;;;;17.33;2.08;;;42.30;29.70;41.50;100548;;;;573975;246;23053;-81
2023/04/22 07:49:23;;;;;;;1.60;1.17;;;42.10;29.80;41.50;100551;;;;573638;246;23068;-79
2023/04/22 07:51:48;;;;;;;4.53;1.00;;;42.00;30.10;41.20;100556;;;;573210;246;24171;-75
2023/04/22 07:54:17;;;;;;;7.72;1.67;;;42.00;29.50;41.50;100559;;;;573862;246;23100;-77
2023/04/22 07:56:45;;;;;;;2.58;0.90;;;41.90;29.70;41.40;100560;;;;573970;246;23067;-77
2023/04/22 07:59:13;;;;;;;1.25;1.17;;;41.80;29.60;41.20;100560;;;;573582;246;23067;-79
2023/04/22 08:01:41;;;;;;;1.67;0.95;;;41.90;29.60;41.40;100565;;;;573776;246;23077;-81
2023/04/22 08:04:09;;;;;;;2.50;1.17;;;41.90;29.90;41.20;100564;;;;568758;246;34992;-81
2023/04/22 08:06:37;;;;;;;4.70;1.15;;;42.00;29.50;41.00;100558;;;;573784;246;23079;-80
2023/04/22 08:09:05;;;;;;;2.05;1.10;;;41.90;29.50;41.10;100564;;;;573232;246;23078;-81
2023/04/22 08:11:36;;;;;;;1.90;1.27;;;41.90;29.70;41.10;100562;;;;573440;246;23075;-80
2023/04/22 08:14:01;;;;;;;1.45;1.35;;;41.80;29.60;40.90;100564;;;;573380;246;23083;-78
2023/04/22 08:16:29;;;;;;;3.78;1.77;;;41.80;29.60;40.60;100558;;;;573526;246;23064;-77
2023/04/22 08:18:57;;;;;;;2.80;1.27;;;41.50;29.70;40.40;100563;;;;573264;246;23087;-79
2023/04/22 08:21:27;;;;;;;0.93;0.90;;;41.20;30.00;40.10;100562;;;;573169;246;24158;-81
2023/04/22 08:23:54;;;;;;;2.10;0.88;;;41.30;29.70;40.40;100564;;;;573221;246;23134;-81
2023/04/22 08:26:23;;;;;;;1.98;1.10;;;41.30;29.60;40.50;100568;;;;573284;246;23064;-82
2023/04/22 08:28:51;;;;;;;3.10;1.17;;;41.30;29.60;40.30;100554;;;;573403;246;23088;-80
2023/04/22 08:31:18;;;;;;;9.25;1.85;;;41.30;29.80;40.60;100561;;;;568631;246;35039;-79
2023/04/22 08:33:49;;;;;;;2.42;1.55;;;41.50;29.60;40.70;100555;;;;573746;246;24217;-80
2023/04/22 08:36:14;;;;;;;1.10;1.10;;;41.60;29.90;41.30;100560;;;;573596;246;23088;-81
2023/04/22 08:38:42;;;;;;;0.80;0.80;;;42.20;29.50;41.50;100561;;;;573771;246;23071;-79
2023/04/22 08:41:10;;;;;;;2.20;1.10;;;42.50;29.20;41.60;100555;;;;574137;246;23064;-79
2023/04/22 08:43:38;;;;;;;1.20;1.12;;;42.70;29.60;41.20;100559;;;;574169;246;24093;-81
2023/04/22 08:46:06;;;;;;;2.85;1.12;;;42.60;29.10;41.00;100559;;;;573964;246;23095;-76
2023/04/22 08:48:34;;;;;;;2.03;1.17;;;42.30;29.60;41.40;100555;;;;574478;246;23130;-85
2023/04/22 08:51:05;;;;;;;19.40;2.28;;;42.60;29.00;41.50;100559;;;;574232;245;23066;-82
2023/04/22 08:53:30;;;;;;;2.80;1.35;;;42.70;29.00;41.70;100557;;;;574685;246;23084;-82
2023/04/22 08:55:58;;;;;;;0.95;0.90;;;43.20;28.80;42.00;100557;;;;570530;246;23098;-84
2023/04/22 08:58:26;;;;;;;1.10;1.10;;;43.20;28.80;41.60;100560;;;;574410;246;23091;-82
2023/04/22 09:00:54;;;;;;;8.88;1.58;;;43.10;28.60;40.90;100554;;;;574121;246;23075;-83
2023/04/22 09:03:22;;;;;;;1.60;1.42;;;42.70;28.70;40.00;100554;;;;574421;246;23057;-81
2023/04/22 09:05:51;;;;;;;2.42;2.12;;;42.20;29.00;39.70;100556;;;;574325;246;23064;-79
2023/04/22 09:08:21;;;;;;;0.80;0.80;;;41.70;29.30;40.30;100549;;;;574294;246;23122;-83
2023/04/22 09:10:46;;;;;;;5.78;1.40;;;41.80;29.20;40.70;100555;;;;582211;246;24105;-82
2023/04/22 09:13:15;;;;;;;1.33;0.90;;;42.20;29.70;40.70;100554;;;;573764;246;23071;-82
2023/04/22 09:15:43;;;;;;;6.80;1.50;;;42.40;29.10;41.00;100550;;;;573843;246;23176;-81
2023/04/22 09:18:11;;;;;;;20.77;3.25;;;42.40;29.10;40.90;100546;;;;573926;246;24103;-82
2023/04/22 09:20:39;;;;;;;8.07;1.98;;;42.40;29.20;40.70;100544;;;;573900;244;23112;-80
2023/04/22 09:23:07;;;;;;;0.82;0.82;;;42.40;29.80;41.00;100545;;;;573759;246;23082;-79
2023/04/22 09:25:35;;;;;;;0.85;0.80;;;42.60;29.20;41.30;100543;;;;573579;246;23067;-82
2023/04/22 09:28:03;;;;;;;2.25;1.10;;;42.70;29.10;41.60;100550;;;;573465;246;23055;-79
2023/04/22 09:30:31;;;;;;;7.15;1.50;;;43.00;29.00;41.30;100546;;;;573053;246;23059;-75
2023/04/22 09:33:04;;;;;;;5.90;1.75;;;43.00;28.90;41.20;100544;;;;573493;246;24145;-78
2023/04/22 09:35:30;;;;;;;1.50;1.40;;;43.00;29.10;41.20;100543;;;;570426;246;23072;-76
2023/04/22 09:38:00;;;;;;;1.33;1.00;;;42.90;28.90;40.60;100551;;;;573326;244;23110;-76
2023/04/22 09:40:28;;;;;;;2.22;1.15;;;42.70;29.40;40.40;100546;;;;573390;246;23214;-77
2023/04/22 09:42:57;;;;;;;2.33;1.02;;;42.30;29.30;40.30;100548;;;;572908;246;24111;-81
2023/04/22 09:45:35;;;;;;;1.12;1.02;;;42.30;29.30;40.00;100545;;;;573513;246;23073;-82
2023/04/22 09:48:03;;;;;;;2.28;1.08;;;41.80;29.70;39.90;100548;;;;572507;246;23116;-82
2023/04/22 09:50:31;;;;;;;1.52;0.73;;;41.80;29.60;40.10;100541;;;;573251;246;23064;-81
2023/04/22 09:52:59;;;;;;;3.00;1.55;;;41.90;29.60;40.00;100549;;;;572975;246;23083;-79
2023/04/22 09:55:27;;;;;;;8.73;1.90;;;41.90;29.80;39.90;100543;;;;573622;246;23071;-82
2023/04/22 09:57:58;;;;;;;12.10;2.42;;;41.90;29.80;39.90;100545;;;;573205;246;23064;-81
2023/04/22 10:00:26;;;;;;;5.37;1.65;;;41.80;29.60;40.00;100540;;;;572529;246;23085;-79
2023/04/22 10:02:54;;;;;;;6.62;2.03;;;41.90;29.30;39.10;100536;;;;574075;245;24146;-77
2023/04/22 10:05:25;;;;;;;2.60;1.40;;;41.60;29.60;38.30;100532;;;;574437;246;23071;-80
2023/04/22 10:07:49;;;;;;;14.35;2.47;;;40.90;30.00;37.20;100530;;;;573519;246;24137;-79
2023/04/22 10:10:17;;;;;;;2.15;1.67;;;39.80;30.10;35.00;100526;;;;574004;246;23061;-78
2023/04/22 10:12:49;;;;;;;10.50;2.40;;;35.80;33.40;32.70;100517;;;;573338;246;23144;-76
2023/04/22 10:15:15;;;;;;;7.55;2.85;;;33.70;34.40;30.60;100518;;;;565303;246;35154;-76
2023/04/22 10:17:46;;;;;;;8.18;2.75;;;33.60;35.00;28.80;100518;;;;573665;246;23115;-79
2023/04/22 10:20:14;;;;;;;5.20;2.20;;;31.60;36.40;27.70;100509;;;;572595;246;23092;-80
2023/04/22 10:22:38;;;;;;;5.68;2.12;;;30.00;37.90;26.00;100510;;;;572711;246;23131;-79
2023/04/22 10:25:06;;;;;;;6.30;1.93;;;28.40;39.60;24.70;100513;;;;573116;246;23178;-77
2023/04/22 10:27:34;;;;;;;13.10;2.30;;;26.90;41.70;23.60;100500;;;;572911;246;23071;-81
2023/04/22 10:30:02;;;;;;;8.60;2.53;;;25.60;43.60;23.00;100494;;;;573547;246;23091;-80
2023/04/22 10:32:32;;;;;;;4.83;2.57;;;24.70;45.10;22.10;100495;;;;573787;246;23094;-80
2023/04/22 10:35:08;;;;;;;3.87;2.13;;;23.80;46.60;21.50;100483;;;;573634;246;23083;-76
2023/04/22 10:37:38;;;;;;;10.77;2.20;;;22.90;48.20;20.70;100479;;;;573819;242;24089;-77
2023/04/22 10:40:09;;;;;;;9.73;2.73;;;22.00;49.90;20.10;100476;;;;573044;246;24104;-78
2023/04/22 10:42:35;;;;;;;14.53;3.07;;;20.60;51.90;19.50;100467;;;;572933;246;24116;-77
2023/04/22 10:45:03;;;;;;;9.87;2.83;;;20.50;51.80;18.90;100467;;;;573070;246;23094;-79
2023/04/22 10:47:40;;;;;;;3.30;1.17;;;20.00;53.70;18.50;100466;;;;573351;246;24063;-74
2023/04/22 10:50:17;;;;;;;8.97;1.20;;;19.50;55.00;18.10;100460;;;;573042;246;24056;-80
2023/04/22 10:52:48;;;;;;;6.80;1.83;;;19.00;56.10;17.50;100460;;;;573572;246;24060;-77
2023/04/22 10:55:19;;;;;;;5.27;1.43;;;18.50;57.10;17.20;100454;;;;572621;246;24062;-80
2023/04/22 10:57:44;;;;;;;7.30;1.57;;;18.00;58.30;16.90;100447;;;;573524;246;24128;-77
2023/04/22 11:00:24;;;;;;;9.33;1.93;;;17.70;59.50;16.70;100452;;;;573077;246;24075;-75
2023/04/22 11:02:56;;;;;;;15.20;2.60;;;17.40;60.20;16.50;100441;;;;573667;246;24163;-77
2023/04/22 11:05:26;;;;;;;6.53;1.63;;;16.90;61.90;16.30;100439;;;;573204;246;24070;-74
2023/04/22 11:07:58;;;;;;;39.37;5.03;;;16.80;61.80;16.10;100431;;;;582098;246;24054;-78
2023/04/22 11:10:36;;;;;;;5.40;2.30;;;16.50;63.70;15.90;100440;;;;581861;246;24058;-76
2023/04/22 11:13:05;;;;;;;15.50;3.03;;;16.40;63.50;15.70;100426;;;;573345;246;24065;-79
2023/04/22 11:15:31;;;;;;;12.53;2.50;;;16.10;65.60;15.50;100431;;;;582942;245;24185;-77